Time;durP1;ratioP1;P1;durP2;ratioP2;P2;SDS_P1;SDS_P2;PMS_P1;PMS_P2;Temp;Humidity;BMP_temperature;BMP_pressure;BME280_temperature;BME280_humidity;BME280_pressure;Samples;Min_cycle;Max_cycle;Signal;HPM_P1;HPM_P2
2023/10/09 00:01:13;;;;;;;4.60;1.80;;;11.00;99.90;;;;;;5034749;28;20025;-78
2023/10/09 00:03:44;;;;;;;1.90;1.80;;;11.00;99.90;;;;;;5033565;28;20033;-78
2023/10/09 00:06:13;;;;;;;1.88;1.70;;;11.00;99.90;;;;;;5028165;28;20099;-78
2023/10/09 00:08:44;;;;;;;4.07;1.98;;;11.00;99.90;;;;;;5034278;28;20056;-77
2023/10/09 00:11:17;;;;;;;2.90;1.80;;;11.00;99.90;;;;;;5034690;28;20465;-77
2023/10/09 00:13:57;;;;;;;2.95;2.08;;;11.10;99.90;;;;;;5031535;28;20037;-77
2023/10/09 00:16:34;;;;;;;2.45;1.85;;;11.10;99.90;;;;;;5012196;28;20424;-79
2023/10/09 00:19:20;;;;;;;5.22;2.00;;;11.10;99.90;;;;;;5030263;28;20044;-79
2023/10/09 00:21:47;;;;;;;5.53;3.10;;;11.10;99.90;;;;;;5033247;28;20539;-78
2023/10/09 00:24:13;;;;;;;3.45;2.15;;;11.10;99.90;;;;;;5028477;28;20025;-79
2023/10/09 00:26:45;;;;;;;4.68;2.25;;;11.10;99.90;;;;;;5028408;28;20030;-78
2023/10/09 00:29:21;;;;;;;3.75;1.98;;;11.10;99.90;;;;;;5032248;28;20068;-79
2023/10/09 00:32:06;;;;;;;3.55;2.08;;;11.10;99.90;;;;;;5035472;28;20033;-79
2023/10/09 00:34:39;;;;;;;6.15;2.33;;;11.10;99.90;;;;;;5035341;28;20060;-78
2023/10/09 00:37:25;;;;;;;4.43;2.58;;;11.10;99.90;;;;;;5031708;28;20405;-79
2023/10/09 00:39:58;;;;;;;4.60;2.47;;;11.10;99.90;;;;;;5021010;28;20080;-78
2023/10/09 00:42:29;;;;;;;5.53;2.53;;;11.10;99.90;;;;;;5020155;28;20483;-79
2023/10/09 00:44:55;;;;;;;2.97;2.20;;;11.10;99.90;;;;;;5047120;28;20089;-77
2023/10/09 00:47:26;;;;;;;4.22;2.13;;;11.10;99.90;;;;;;5035321;28;20031;-78
2023/10/09 00:49:59;;;;;;;5.97;2.30;;;11.10;99.90;;;;;;5031874;28;20086;-77
2023/10/09 00:52:39;;;;;;;3.33;2.88;;;11.10;99.90;;;;;;5038626;28;20593;-77
2023/10/09 00:55:13;;;;;;;4.75;2.30;;;11.10;99.90;;;;;;5056051;28;20412;-78
2023/10/09 00:57:51;;;;;;;3.50;2.50;;;11.10;99.90;;;;;;5036152;28;20033;-78
2023/10/09 01:00:32;;;;;;;4.63;2.40;;;11.10;99.90;;;;;;5031336;28;20037;-79
2023/10/09 01:06:21;;;;;;;3.00;2.67;;;11.10;99.90;;;;;;5036176;28;20621;-78
2023/10/09 01:11:18;;;;;;;5.82;2.30;;;11.10;99.90;;;;;;5039549;28;20048;-78
2023/10/09 01:16:18;;;;;;;5.30;2.17;;;11.10;99.90;;;;;;5027500;28;20101;-79
2023/10/09 01:18:44;;;;;;;3.47;2.17;;;11.10;99.90;;;;;;5038664;28;20033;-78
2023/10/09 01:21:14;;;;;;;5.22;2.40;;;11.10;99.90;;;;;;5035949;28;20067;-78
2023/10/09 01:24:03;;;;;;;2.80;2.30;;;11.10;99.90;;;;;;5041116;28;20021;-78
2023/10/09 01:26:46;;;;;;;2.47;2.25;;;11.10;99.90;;;;;;5037213;28;20473;-78
2023/10/09 01:29:27;;;;;;;4.53;2.40;;;11.10;99.90;;;;;;5028378;28;20086;-78
2023/10/09 01:31:55;;;;;;;3.90;2.33;;;11.10;99.90;;;;;;5044298;28;20158;-78
2023/10/09 01:34:44;;;;;;;3.90;2.10;;;11.00;99.90;;;;;;5038023;28;20030;-78
2023/10/09 01:37:18;;;;;;;2.95;2.15;;;11.00;99.90;;;;;;5027854;28;20410;-78
2023/10/09 01:39:50;;;;;;;6.00;2.20;;;11.00;99.90;;;;;;5035033;28;20025;-78
2023/10/09 01:42:34;;;;;;;4.22;2.67;;;11.00;99.90;;;;;;5028920;28;20053;-78
2023/10/09 01:47:46;;;;;;;3.78;2.72;;;10.90;99.90;;;;;;5038160;28;20037;-77
2023/10/09 01:50:35;;;;;;;4.47;2.35;;;10.90;99.90;;;;;;5034079;28;20105;-79
2023/10/09 01:53:07;;;;;;;3.70;2.53;;;10.90;99.90;;;;;;5035752;28;20061;-78
2023/10/09 01:55:40;;;;;;;4.45;2.72;;;10.90;99.90;;;;;;5043933;28;20092;-77
2023/10/09 02:00:50;;;;;;;6.55;2.45;;;10.90;99.90;;;;;;5032006;28;20327;-79
2023/10/09 02:03:23;;;;;;;3.92;2.67;;;10.90;99.90;;;;;;5041377;28;20112;-78
2023/10/09 02:05:51;;;;;;;5.07;2.58;;;10.90;99.90;;;;;;5033587;28;20039;-78
2023/10/09 02:08:35;;;;;;;6.38;2.70;;;10.80;99.90;;;;;;5040884;28;20098;-78
2023/10/09 02:11:02;;;;;;;6.40;3.70;;;10.80;99.90;;;;;;5036835;28;20048;-79
2023/10/09 02:13:34;;;;;;;3.92;2.58;;;10.80;99.90;;;;;;5047527;28;20025;-79
2023/10/09 02:16:26;;;;;;;6.18;3.13;;;10.80;99.90;;;;;;5035679;28;20515;-78
2023/10/09 02:18:59;;;;;;;4.10;3.28;;;10.80;99.90;;;;;;5025174;28;20026;-78
2023/10/09 02:21:39;;;;;;;4.60;3.35;;;10.80;99.90;;;;;;5033418;28;20578;-78
2023/10/09 02:24:09;;;;;;;4.47;3.30;;;10.80;99.90;;;;;;5039906;28;20400;-79
2023/10/09 02:29:09;;;;;;;14.23;5.20;;;10.80;99.90;;;;;;5032875;28;20068;-79
2023/10/09 02:31:40;;;;;;;7.82;4.60;;;10.90;99.90;;;;;;5039343;28;20040;-79
2023/10/09 02:34:12;;;;;;;7.25;4.55;;;10.90;99.90;;;;;;5034216;28;20034;-79
2023/10/09 02:37:23;;;;;;;12.50;5.25;;;10.90;99.90;;;;;;5033805;28;20028;-79
2023/10/09 02:39:28;;;;;;;7.70;5.18;;;10.90;99.90;;;;;;5027645;28;20144;-78
2023/10/09 02:42:01;;;;;;;11.27;5.60;;;10.90;99.90;;;;;;5039785;28;20034;-78
2023/10/09 02:44:40;;;;;;;8.65;5.63;;;10.90;99.90;;;;;;5032194;28;20036;-78
2023/10/09 02:47:12;;;;;;;12.90;7.00;;;10.90;99.90;;;;;;5055867;28;20090;-78
2023/10/09 02:49:39;;;;;;;11.60;7.05;;;11.00;99.90;;;;;;5047352;28;20029;-79
2023/10/09 02:52:07;;;;;;;9.05;5.85;;;11.00;99.90;;;;;;5028915;28;20048;-79
2023/10/09 02:54:41;;;;;;;14.68;6.72;;;11.00;99.90;;;;;;5036261;28;20085;-78
2023/10/09 02:57:07;;;;;;;12.57;7.18;;;11.00;99.90;;;;;;5030914;28;20037;-78
2023/10/09 02:59:37;;;;;;;11.50;6.47;;;11.00;99.90;;;;;;5032022;28;20029;-78
2023/10/09 03:02:03;;;;;;;15.30;6.63;;;11.00;99.90;;;;;;5027135;28;20044;-79
2023/10/09 03:04:32;;;;;;;12.15;7.65;;;11.00;99.90;;;;;;5037606;28;20042;-78
2023/10/09 03:06:58;;;;;;;15.30;6.78;;;11.10;99.90;;;;;;5049313;28;20030;-79
2023/10/09 03:09:28;;;;;;;14.05;6.18;;;11.10;99.90;;;;;;5041831;28;20026;-78
2023/10/09 03:12:02;;;;;;;13.52;6.13;;;11.10;99.90;;;;;;5041553;28;20055;-79
2023/10/09 03:14:35;;;;;;;9.38;6.35;;;11.10;99.90;;;;;;5058286;28;20057;-79
2023/10/09 03:17:01;;;;;;;12.73;6.75;;;11.10;99.90;;;;;;5036407;28;20031;-79
2023/10/09 03:19:38;;;;;;;12.18;6.50;;;11.10;99.90;;;;;;5033352;28;20041;-79
2023/10/09 03:22:09;;;;;;;11.07;6.93;;;11.10;99.90;;;;;;5033624;28;20045;-78
2023/10/09 03:24:37;;;;;;;14.82;6.90;;;11.10;99.90;;;;;;5042456;28;20049;-79
2023/10/09 03:27:04;;;;;;;9.98;6.28;;;11.10;99.90;;;;;;5034815;28;20025;-79
2023/10/09 03:29:30;;;;;;;15.02;6.80;;;11.10;99.90;;;;;;5044454;28;20037;-79
2023/10/09 03:31:56;;;;;;;9.98;6.50;;;11.20;99.90;;;;;;5032542;28;20067;-78
2023/10/09 03:34:23;;;;;;;10.00;6.50;;;11.20;99.90;;;;;;5049839;28;20044;-78
2023/10/09 03:36:59;;;;;;;10.68;6.70;;;11.20;99.90;;;;;;5040620;28;20067;-78
2023/10/09 03:39:38;;;;;;;9.48;6.20;;;11.20;99.90;;;;;;5041167;28;20030;-78
2023/10/09 03:42:05;;;;;;;14.45;7.05;;;11.20;99.90;;;;;;5044463;28;20030;-79
2023/10/09 03:44:39;;;;;;;10.50;6.20;;;11.40;99.90;;;;;;5038966;28;20740;-78
2023/10/09 03:47:05;;;;;;;12.88;5.95;;;11.40;99.90;;;;;;5035253;28;20089;-79
2023/10/09 03:49:31;;;;;;;12.10;6.85;;;11.40;99.90;;;;;;5038536;28;20030;-78
2023/10/09 03:51:59;;;;;;;12.93;7.25;;;11.40;99.90;;;;;;5042905;28;20042;-78
2023/10/09 03:54:25;;;;;;;16.60;7.30;;;11.40;99.90;;;;;;5034499;28;20048;-78
2023/10/09 03:56:51;;;;;;;11.13;6.65;;;11.40;99.90;;;;;;5038425;28;20042;-79
2023/10/09 03:59:19;;;;;;;11.40;7.55;;;11.40;99.90;;;;;;5043944;28;20041;-79
2023/10/09 04:01:48;;;;;;;9.20;6.45;;;11.40;99.90;;;;;;5038692;28;20037;-78
2023/10/09 04:04:17;;;;;;;13.77;7.10;;;11.40;99.90;;;;;;5036083;28;20029;-79
2023/10/09 04:06:43;;;;;;;14.25;6.40;;;11.40;99.90;;;;;;5041664;28;20059;-78
2023/10/09 04:15:01;;;;;;;9.65;5.95;;;11.40;99.90;;;;;;5037785;28;20421;-79
2023/10/09 04:17:34;;;;;;;5.97;3.58;;;11.40;99.90;;;;;;5044464;28;20171;-79
2023/10/09 04:22:59;;;;;;;8.52;4.28;;;11.30;99.90;;;;;;5032466;28;20025;-77
2023/10/09 04:25:26;;;;;;;6.97;4.53;;;11.30;99.90;;;;;;5037886;28;20593;-78
2023/10/09 04:27:53;;;;;;;11.32;4.70;;;11.20;99.90;;;;;;5030527;28;20041;-79
2023/10/09 04:30:19;;;;;;;7.75;5.35;;;11.20;99.90;;;;;;5040544;28;20523;-79
2023/10/09 04:32:45;;;;;;;9.85;4.72;;;11.10;99.90;;;;;;5032450;28;20028;-78
2023/10/09 04:35:22;;;;;;;7.93;5.15;;;11.10;99.90;;;;;;5041166;28;20038;-78
2023/10/09 04:38:04;;;;;;;10.10;6.45;;;11.00;99.90;;;;;;5041292;28;20445;-78
2023/10/09 04:43:20;;;;;;;11.88;4.55;;;11.00;99.90;;;;;;5037683;28;20050;-79
2023/10/09 04:48:38;;;;;;;6.35;4.80;;;10.80;99.90;;;;;;5032225;28;20481;-78
2023/10/09 04:54:39;;;;;;;7.43;5.35;;;10.80;99.90;;;;;;5037573;28;20048;-78
2023/10/09 04:57:02;;;;;;;11.40;5.15;;;10.70;99.90;;;;;;5027204;28;20406;-79
2023/10/09 04:59:27;;;;;;;8.32;4.72;;;10.60;99.90;;;;;;5038327;28;20051;-78
2023/10/09 05:01:59;;;;;;;7.65;4.55;;;10.60;99.90;;;;;;5035377;28;20057;-79
2023/10/09 05:07:22;;;;;;;7.95;3.60;;;10.60;99.90;;;;;;5055168;28;20026;-78
2023/10/09 05:10:08;;;;;;;6.63;3.63;;;10.50;99.90;;;;;;5036363;28;20041;-78
2023/10/09 05:12:34;;;;;;;9.57;3.90;;;10.50;99.90;;;;;;5043985;28;20082;-78
2023/10/09 05:15:09;;;;;;;3.97;2.80;;;10.40;99.90;;;;;;5032887;28;20689;-79
2023/10/09 05:17:38;;;;;;;4.38;3.25;;;10.40;99.90;;;;;;5048096;28;20025;-79
2023/10/09 05:22:58;;;;;;;5.67;3.20;;;10.30;99.90;;;;;;5027784;28;20540;-79
2023/10/09 05:28:52;;;;;;;;;;;10.20;99.90;;;;;;5035299;28;20033;-79
2023/10/09 05:31:08;;;;;;;7.18;4.07;;;10.20;99.90;;;;;;5026078;28;20324;-78
2023/10/09 05:33:36;;;;;;;11.10;4.18;;;10.20;99.90;;;;;;5045923;28;20032;-79
2023/10/09 05:38:58;;;;;;;16.52;5.90;;;10.20;99.90;;;;;;5031979;28;20030;-78
2023/10/09 05:41:47;;;;;;;9.48;5.22;;;10.20;99.90;;;;;;5034339;28;20040;-78
2023/10/09 06:08:26;;;;;;;7.63;4.30;;;10.60;99.90;;;;;;5041826;28;20033;-78
2023/10/09 06:11:06;;;;;;;10.77;4.38;;;10.60;99.90;;;;;;5032270;28;20025;-78
2023/10/09 06:13:37;;;;;;;4.45;3.30;;;10.60;99.90;;;;;;5034222;28;20050;-78
2023/10/09 06:16:19;;;;;;;5.95;3.63;;;10.70;99.90;;;;;;5037995;28;20033;-78
2023/10/09 06:18:54;;;;;;;6.82;3.85;;;10.70;99.90;;;;;;5030005;28;20108;-79
2023/10/09 06:24:14;;;;;;;6.95;3.90;;;10.70;99.90;;;;;;5034202;28;20163;-78
2023/10/09 06:26:51;;;;;;;7.68;4.35;;;10.80;99.90;;;;;;5028498;28;20049;-78
2023/10/09 06:29:35;;;;;;;8.55;4.18;;;10.80;99.90;;;;;;5026831;28;20520;-78
2023/10/09 06:35:18;;;;;;;10.05;5.13;;;10.90;99.90;;;;;;5023382;28;20712;-77
2023/10/09 06:43:26;;;;;;;10.38;5.97;;;11.10;99.90;;;;;;5021106;28;20033;-77
2023/10/09 06:48:57;;;;;;;11.77;5.28;;;11.20;99.90;;;;;;4992207;28;20111;-79
2023/10/09 06:59:23;;;;;;;10.70;4.57;;;11.50;99.90;;;;;;5035616;28;20033;-78
2023/10/09 07:04:45;;;;;;;6.35;4.20;;;11.50;99.90;;;;;;5028385;28;20040;-78
2023/10/09 07:07:14;;;;;;;6.30;4.60;;;11.60;99.90;;;;;;5032900;28;20468;-79
2023/10/09 07:10:28;;;;;;;7.28;4.40;;;11.60;99.90;;;;;;5034846;28;20029;-79
2023/10/09 07:12:32;;;;;;;6.03;4.13;;;11.60;99.90;;;;;;5030955;28;20049;-78
2023/10/09 07:23:13;;;;;;;10.63;5.40;;;12.00;99.90;;;;;;5010143;28;20042;-78
2023/10/09 07:25:40;;;;;;;11.32;4.95;;;12.10;99.90;;;;;;5040164;28;20037;-78
2023/10/09 07:28:29;;;;;;;7.90;4.60;;;12.20;99.90;;;;;;5043880;28;20042;-78
2023/10/09 07:30:58;;;;;;;5.20;3.72;;;12.20;99.90;;;;;;5034177;28;20033;-78
2023/10/09 07:33:56;;;;;;;5.35;3.08;;;12.20;99.90;;;;;;5037608;28;20041;-78
2023/10/09 07:36:12;;;;;;;7.55;3.20;;;12.20;99.90;;;;;;5050206;28;20034;-78
2023/10/09 07:38:38;;;;;;;5.03;2.67;;;12.20;99.90;;;;;;5034657;28;20049;-79
2023/10/09 07:43:45;;;;;;;6.15;2.80;;;12.20;99.90;;;;;;5034330;28;20025;-79
2023/10/09 07:46:32;;;;;;;8.70;3.75;;;12.10;99.90;;;;;;5031964;28;20049;-77
2023/10/09 07:49:08;;;;;;;6.63;4.00;;;12.10;99.90;;;;;;5027982;28;20087;-79
2023/10/09 07:51:43;;;;;;;7.70;4.68;;;12.10;99.90;;;;;;5024439;28;20475;-79
2023/10/09 07:54:14;;;;;;;7.30;4.30;;;12.10;99.90;;;;;;5027799;28;20481;-80
2023/10/09 07:56:41;;;;;;;13.38;5.75;;;12.20;99.90;;;;;;5029324;28;20033;-78
2023/10/09 07:59:11;;;;;;;12.60;5.07;;;12.20;99.90;;;;;;5028061;28;20044;-78
2023/10/09 08:04:39;;;;;;;;;;;12.30;99.90;;;;;;5036305;28;20473;-80
2023/10/09 08:07:07;;;;;;;12.77;5.72;;;12.30;99.90;;;;;;5036026;28;19913;-78
2023/10/09 08:09:48;;;;;;;13.27;6.13;;;12.40;99.90;;;;;;5032352;28;20398;-78
2023/10/09 08:12:39;;;;;;;16.00;5.97;;;12.50;99.90;;;;;;5036207;28;20037;-80
2023/10/09 08:15:21;;;;;;;10.40;5.50;;;12.50;99.90;;;;;;5025826;28;20398;-79
2023/10/09 08:18:03;;;;;;;12.18;6.07;;;12.60;99.90;;;;;;5038707;28;20048;-80
2023/10/09 08:21:19;;;;;;;6.78;5.05;;;12.70;99.90;;;;;;5033518;28;20051;-80
2023/10/09 08:23:28;;;;;;;5.93;3.60;;;12.70;99.90;;;;;;5025877;28;20061;-78
2023/10/09 08:26:13;;;;;;;3.17;2.75;;;12.70;99.90;;;;;;5025950;28;20041;-78
2023/10/09 08:28:43;;;;;;;6.30;4.30;;;12.70;99.90;;;;;;5037875;28;20033;-79
2023/10/09 08:31:34;;;;;;;10.07;4.90;;;12.70;99.90;;;;;;5031694;28;20025;-79
2023/10/09 08:34:01;;;;;;;11.40;5.38;;;12.80;99.90;;;;;;5028582;28;20037;-80
2023/10/09 08:36:28;;;;;;;9.63;5.60;;;12.80;99.90;;;;;;5028475;28;20412;-80
2023/10/09 08:38:58;;;;;;;13.13;5.85;;;12.80;99.90;;;;;;5032744;28;20579;-80
2023/10/09 08:41:29;;;;;;;8.73;5.10;;;12.90;99.90;;;;;;5029319;28;20116;-81
2023/10/09 08:43:57;;;;;;;9.00;4.88;;;13.00;99.90;;;;;;5030745;28;20505;-79
2023/10/09 08:46:27;;;;;;;8.18;5.05;;;13.00;99.90;;;;;;5035267;28;20101;-77
2023/10/09 08:48:58;;;;;;;8.07;4.88;;;13.10;99.90;;;;;;5027745;28;20045;-80
2023/10/09 08:51:25;;;;;;;14.60;6.13;;;13.10;99.90;;;;;;5027061;28;20525;-79
2023/10/09 08:53:52;;;;;;;12.95;5.88;;;13.20;99.90;;;;;;5030759;28;20135;-79
2023/10/09 08:56:22;;;;;;;10.60;6.25;;;13.20;99.90;;;;;;5029678;28;20049;-79
2023/10/09 08:58:59;;;;;;;9.20;5.53;;;13.30;99.90;;;;;;5026068;28;20029;-80
2023/10/09 09:01:25;;;;;;;11.25;6.28;;;13.30;99.90;;;;;;5034824;28;20034;-81
2023/10/09 09:03:55;;;;;;;9.02;5.72;;;13.40;99.90;;;;;;5030368;28;20069;-81
2023/10/09 09:06:23;;;;;;;10.13;6.00;;;13.30;99.90;;;;;;5026311;28;20052;-78
2023/10/09 09:08:54;;;;;;;16.90;7.65;;;13.30;99.90;;;;;;5022929;28;20489;-78
2023/10/09 09:11:24;;;;;;;16.77;7.05;;;13.30;99.90;;;;;;5033224;28;20096;-79
2023/10/09 09:14:05;;;;;;;17.95;8.43;;;13.30;99.90;;;;;;5033755;28;20033;-82
2023/10/09 09:16:35;;;;;;;14.80;8.93;;;13.20;99.90;;;;;;5024865;28;20596;-79
2023/10/09 09:21:40;;;;;;;11.95;7.95;;;13.10;99.90;;;;;;5036619;28;20024;-79
2023/10/09 09:24:26;;;;;;;13.13;8.57;;;13.00;99.90;;;;;;5025043;28;20132;-79
2023/10/09 09:27:21;;;;;;;12.02;8.15;;;13.10;99.90;;;;;;5026491;28;20420;-78
2023/10/09 09:29:53;;;;;;;12.95;9.02;;;13.10;99.90;;;;;;5024825;28;20045;-78
2023/10/09 09:32:36;;;;;;;12.18;7.90;;;13.10;99.90;;;;;;5022672;28;20042;-79
2023/10/09 09:35:04;;;;;;;14.68;6.93;;;13.20;99.90;;;;;;5026764;28;20026;-81
2023/10/09 09:40:27;;;;;;;8.77;4.60;;;13.20;99.90;;;;;;5026240;28;20030;-79
2023/10/09 09:43:05;;;;;;;11.27;7.05;;;13.20;99.90;;;;;;5028045;28;20029;-79
2023/10/09 09:45:46;;;;;;;12.27;7.60;;;13.20;99.90;;;;;;5030451;28;20045;-78
2023/10/09 09:48:15;;;;;;;18.90;10.02;;;13.20;99.90;;;;;;5022933;28;20041;-80
2023/10/09 09:50:44;;;;;;;22.65;11.73;;;13.20;99.90;;;;;;5026830;28;20156;-78
2023/10/09 09:53:16;;;;;;;26.65;13.50;;;13.20;99.90;;;;;;5015935;28;20029;-80
2023/10/09 09:55:52;;;;;;;21.15;11.82;;;13.30;99.90;;;;;;5040790;28;20674;-77
2023/10/09 09:58:20;;;;;;;17.15;9.00;;;13.30;99.90;;;;;;5021014;28;20058;-79
2023/10/09 10:00:52;;;;;;;15.27;8.95;;;13.30;99.90;;;;;;5018516;28;20025;-78
2023/10/09 10:03:24;;;;;;;16.80;7.97;;;13.40;99.90;;;;;;5021856;28;20129;-80
2023/10/09 10:05:51;;;;;;;17.15;8.30;;;13.40;99.90;;;;;;5014900;28;20033;-78
2023/10/09 10:08:19;;;;;;;15.18;8.32;;;13.40;99.90;;;;;;5022995;28;20116;-81
2023/10/09 10:10:55;;;;;;;16.13;8.60;;;13.40;99.90;;;;;;5030894;28;20137;-80
2023/10/09 10:13:43;;;;;;;18.73;9.20;;;13.40;99.90;;;;;;5022556;28;20041;-79
2023/10/09 10:16:19;;;;;;;17.70;9.35;;;13.50;99.90;;;;;;5027072;28;20077;-78
2023/10/09 10:19:21;;;;;;;14.52;9.65;;;13.50;99.90;;;;;;5031360;28;20036;-79
2023/10/09 10:22:01;;;;;;;14.73;9.75;;;13.60;99.90;;;;;;5031440;28;20047;-78
2023/10/09 10:24:35;;;;;;;16.27;10.32;;;13.70;99.90;;;;;;5032756;28;20017;-79
2023/10/09 10:27:27;;;;;;;15.18;10.70;;;13.70;99.90;;;;;;5029630;28;20026;-80
2023/10/09 10:30:13;;;;;;;12.38;8.60;;;13.80;99.90;;;;;;5025944;28;20045;-81
2023/10/09 10:32:51;;;;;;;11.25;6.10;;;13.80;99.90;;;;;;5025223;28;20026;-80
2023/10/09 10:35:32;;;;;;;8.27;5.05;;;13.90;99.90;;;;;;5028593;28;20030;-80
2023/10/09 10:38:11;;;;;;;8.40;5.30;;;13.80;99.90;;;;;;5029082;28;20033;-82
2023/10/09 10:40:46;;;;;;;8.50;5.45;;;13.80;99.90;;;;;;5030009;28;20033;-81
2023/10/09 10:47:22;;;;;;;6.63;5.05;;;13.90;99.90;;;;;;5026148;28;20493;-80
2023/10/09 10:49:21;;;;;;;16.08;7.90;;;13.90;99.90;;;;;;5009586;28;20045;-80
2023/10/09 10:51:49;;;;;;;9.25;5.72;;;14.00;99.90;;;;;;5029920;28;20040;-80
2023/10/09 10:56:57;;;;;;;11.07;6.15;;;14.20;99.90;;;;;;5025136;28;20040;-80
2023/10/09 10:59:26;;;;;;;12.48;6.25;;;14.20;99.90;;;;;;5017282;28;20038;-79
2023/10/09 11:01:53;;;;;;;10.52;5.53;;;14.30;99.90;;;;;;5028177;28;20092;-78
2023/10/09 11:07:24;;;;;;;7.53;4.60;;;14.40;99.90;;;;;;5032068;28;20030;-78
2023/10/09 11:12:39;;;;;;;6.88;4.57;;;14.60;99.90;;;;;;5037350;28;20030;-77
2023/10/09 11:15:07;;;;;;;6.97;4.35;;;14.70;99.90;;;;;;5031771;28;20541;-78
2023/10/09 11:17:35;;;;;;;7.80;4.60;;;14.80;99.90;;;;;;5026650;28;20033;-78
2023/10/09 11:20:24;;;;;;;8.05;4.32;;;14.80;99.90;;;;;;5030765;28;20033;-78
2023/10/09 11:23:47;;;;;;;8.63;4.18;;;14.80;99.90;;;;;;5029962;28;20131;-79
2023/10/09 11:25:50;;;;;;;7.32;4.07;;;14.80;99.90;;;;;;5020310;28;20044;-77
2023/10/09 11:28:42;;;;;;;10.63;4.93;;;14.80;99.90;;;;;;5022619;28;20079;-78
2023/10/09 11:31:12;;;;;;;8.15;3.95;;;14.90;99.90;;;;;;5040455;28;20045;-77
2023/10/09 11:33:48;;;;;;;5.95;4.07;;;14.90;99.90;;;;;;5030275;28;20052;-77
2023/10/09 11:36:32;;;;;;;8.40;4.10;;;15.00;99.90;;;;;;5029291;28;20112;-77
2023/10/09 11:39:18;;;;;;;8.48;4.20;;;15.00;99.90;;;;;;5030304;28;20033;-77
2023/10/09 11:41:44;;;;;;;9.18;3.92;;;15.00;99.90;;;;;;5034454;28;20029;-77
2023/10/09 11:44:33;;;;;;;7.88;3.85;;;14.90;99.90;;;;;;5034847;28;20112;-78
2023/10/09 11:52:35;;;;;;;6.97;3.88;;;14.90;99.90;;;;;;5030655;28;20112;-79
2023/10/09 11:55:02;;;;;;;8.98;4.60;;;14.90;99.90;;;;;;5033651;28;20065;-78
2023/10/09 11:57:31;;;;;;;6.57;4.18;;;14.80;99.90;;;;;;5037980;28;20063;-78
2023/10/09 11:59:59;;;;;;;7.10;3.90;;;14.80;99.90;;;;;;5036397;28;20038;-78
2023/10/09 12:02:25;;;;;;;7.85;4.22;;;14.70;99.90;;;;;;5033172;28;20064;-78
2023/10/09 12:04:54;;;;;;;7.28;4.10;;;14.70;99.90;;;;;;5032492;28;20029;-78
2023/10/09 12:07:20;;;;;;;7.97;4.47;;;14.70;99.90;;;;;;5031501;28;20098;-78
2023/10/09 12:09:48;;;;;;;7.05;4.00;;;14.80;99.90;;;;;;5033782;28;20032;-78
2023/10/09 12:12:35;;;;;;;6.63;4.22;;;14.80;99.90;;;;;;5023066;28;20113;-77
2023/10/09 12:15:05;;;;;;;8.60;4.10;;;14.90;99.90;;;;;;5027748;28;20116;-78
2023/10/09 12:17:30;;;;;;;7.90;4.40;;;14.90;99.90;;;;;;5028208;28;20052;-78
2023/10/09 12:19:56;;;;;;;6.32;4.05;;;14.90;99.90;;;;;;5029401;28;20025;-77
2023/10/09 12:22:26;;;;;;;6.78;4.28;;;14.90;99.90;;;;;;5026845;28;20024;-79
2023/10/09 12:24:54;;;;;;;8.23;4.30;;;14.90;99.90;;;;;;5031766;28;20025;-77
2023/10/09 12:27:20;;;;;;;8.07;4.28;;;14.90;99.90;;;;;;5021587;28;20056;-77
2023/10/09 12:29:46;;;;;;;8.68;3.55;;;15.00;99.90;;;;;;5027198;28;20534;-77
2023/10/09 12:32:11;;;;;;;5.90;3.72;;;15.00;99.90;;;;;;5024426;28;20025;-79
2023/10/09 12:34:39;;;;;;;7.43;4.63;;;15.00;99.90;;;;;;5025623;28;20022;-77
2023/10/09 12:37:06;;;;;;;11.82;4.60;;;15.00;99.90;;;;;;5022391;28;20026;-77
2023/10/09 12:39:34;;;;;;;10.65;5.13;;;15.10;99.90;;;;;;5028237;28;20083;-79
2023/10/09 12:42:06;;;;;;;9.82;4.88;;;15.10;99.90;;;;;;5026018;28;20109;-79
2023/10/09 12:44:34;;;;;;;7.03;4.75;;;15.20;99.90;;;;;;5021968;28;20037;-79
2023/10/09 12:47:04;;;;;;;9.02;4.35;;;15.20;99.90;;;;;;5028336;28;20124;-78
2023/10/09 12:49:30;;;;;;;8.68;4.43;;;15.30;99.90;;;;;;5029179;28;20033;-78
2023/10/09 12:51:58;;;;;;;10.02;5.57;;;15.40;99.90;;;;;;5022635;28;20124;-78
2023/10/09 12:54:28;;;;;;;8.65;5.25;;;15.50;99.90;;;;;;5021856;28;20032;-80
2023/10/09 12:56:55;;;;;;;6.55;4.50;;;15.60;99.90;;;;;;5024657;28;20025;-80
2023/10/09 12:59:21;;;;;;;8.18;4.28;;;15.70;99.90;;;;;;5034264;28;20026;-76
2023/10/09 13:01:52;;;;;;;7.68;4.05;;;15.80;99.90;;;;;;5015941;28;20215;-80
2023/10/09 13:04:22;;;;;;;9.38;3.97;;;15.80;99.90;;;;;;5025728;28;20108;-80
2023/10/09 13:06:51;;;;;;;8.15;4.25;;;15.90;99.90;;;;;;5022487;28;20409;-77
2023/10/09 13:09:35;;;;;;;7.95;4.32;;;15.90;99.90;;;;;;5029567;28;20219;-78
2023/10/09 13:12:01;;;;;;;10.23;3.83;;;16.00;99.90;;;;;;5023869;28;20064;-78
2023/10/09 13:14:28;;;;;;;10.52;4.03;;;15.90;99.90;;;;;;5026562;28;20053;-78
2023/10/09 13:16:55;;;;;;;6.63;3.30;;;15.90;99.90;;;;;;5023121;28;20037;-79
2023/10/09 13:19:24;;;;;;;8.40;3.92;;;15.90;99.90;;;;;;5022074;28;20034;-78
2023/10/09 13:21:50;;;;;;;7.13;4.00;;;15.90;99.90;;;;;;5025546;28;20036;-79
2023/10/09 13:24:16;;;;;;;6.57;3.83;;;15.90;99.90;;;;;;5033588;28;20056;-78
2023/10/09 13:26:45;;;;;;;8.48;4.18;;;15.90;99.90;;;;;;5030142;28;20030;-77
2023/10/09 13:29:11;;;;;;;5.60;3.55;;;15.90;99.90;;;;;;5027901;28;20037;-78
2023/10/09 13:31:46;;;;;;;8.70;3.85;;;15.90;99.90;;;;;;5030428;28;20280;-79
2023/10/09 13:34:14;;;;;;;6.90;4.20;;;15.90;99.90;;;;;;5028997;28;20033;-79
2023/10/09 13:36:45;;;;;;;9.23;3.92;;;15.90;99.90;;;;;;5028389;28;20071;-77
2023/10/09 13:39:24;;;;;;;12.65;4.57;;;15.90;99.90;;;;;;5026970;28;20017;-77
2023/10/09 13:41:57;;;;;;;9.10;4.22;;;16.00;99.90;;;;;;5031588;28;20075;-79
2023/10/09 13:44:27;;;;;;;8.05;3.95;;;16.00;99.90;;;;;;5030278;28;20087;-78
2023/10/09 13:46:58;;;;;;;7.85;3.40;;;16.10;99.90;;;;;;5040371;28;20071;-79
2023/10/09 13:49:29;;;;;;;9.77;4.10;;;16.00;99.90;;;;;;5022722;28;20040;-77
2023/10/09 13:51:59;;;;;;;7.38;3.83;;;16.00;99.90;;;;;;5028957;28;20087;-78
2023/10/09 13:54:47;;;;;;;6.28;3.83;;;16.10;99.90;;;;;;5026133;28;20111;-79
2023/10/09 13:57:15;;;;;;;7.80;3.85;;;16.10;99.90;;;;;;5030695;28;20063;-76
2023/10/09 13:59:51;;;;;;;7.07;4.20;;;16.10;99.90;;;;;;5028316;28;20083;-79
2023/10/09 14:02:18;;;;;;;10.05;4.47;;;16.10;99.90;;;;;;5021159;28;20901;-79
2023/10/09 14:04:46;;;;;;;7.38;3.70;;;16.00;99.90;;;;;;5025380;28;20044;-79
2023/10/09 14:07:16;;;;;;;6.72;4.07;;;15.90;99.90;;;;;;5026017;28;20063;-78
2023/10/09 14:12:10;;;;;;;10.07;3.60;;;15.90;99.90;;;;;;5022428;28;20029;-79
2023/10/09 14:14:47;;;;;;;11.63;4.07;;;15.90;99.90;;;;;;5028556;28;20056;-77
2023/10/09 14:17:23;;;;;;;10.95;4.32;;;15.80;99.90;;;;;;5028340;28;20500;-77
2023/10/09 14:19:51;;;;;;;11.68;4.20;;;15.80;99.90;;;;;;5018850;28;20600;-78
2023/10/09 14:22:18;;;;;;;8.93;3.78;;;15.70;99.90;;;;;;5023373;28;20013;-78
2023/10/09 14:24:45;;;;;;;9.57;3.78;;;15.70;99.90;;;;;;5024027;28;20034;-79
2023/10/09 14:27:17;;;;;;;7.63;3.90;;;15.60;99.90;;;;;;5028630;28;20025;-78
2023/10/09 14:29:47;;;;;;;8.82;3.90;;;15.60;99.90;;;;;;5025439;28;20061;-78
2023/10/09 14:32:14;;;;;;;6.13;3.33;;;15.50;99.90;;;;;;5033213;28;20064;-78
2023/10/09 14:34:51;;;;;;;8.32;4.05;;;15.50;99.90;;;;;;5034513;28;20048;-78
2023/10/09 14:37:18;;;;;;;8.07;4.03;;;15.50;99.90;;;;;;5022930;28;20056;-78
2023/10/09 14:39:50;;;;;;;10.13;4.50;;;15.50;99.90;;;;;;5026729;28;20363;-79
2023/10/09 14:42:17;;;;;;;8.20;3.75;;;15.40;99.90;;;;;;5029451;28;20049;-78
2023/10/09 14:44:47;;;;;;;12.05;5.40;;;15.40;99.90;;;;;;5035125;28;20448;-78
2023/10/09 14:47:16;;;;;;;7.72;4.97;;;15.40;99.90;;;;;;5034729;28;20025;-77
2023/10/09 14:49:46;;;;;;;9.88;5.20;;;15.30;99.90;;;;;;5030781;28;20034;-78
2023/10/09 14:52:16;;;;;;;11.75;4.85;;;15.30;99.90;;;;;;5033002;28;20044;-78
2023/10/09 14:54:46;;;;;;;8.02;4.53;;;15.30;99.90;;;;;;5027839;28;20669;-78
2023/10/09 14:57:12;;;;;;;10.27;4.35;;;15.30;99.90;;;;;;5021809;28;20049;-78
2023/10/09 14:59:39;;;;;;;9.70;4.05;;;15.30;99.90;;;;;;5032447;28;20463;-78
2023/10/09 15:02:07;;;;;;;10.75;4.97;;;15.30;99.90;;;;;;5041626;28;20024;-78
2023/10/09 15:04:36;;;;;;;15.23;4.47;;;15.30;99.90;;;;;;5038004;28;20425;-78
2023/10/09 15:07:03;;;;;;;9.00;4.15;;;15.30;99.90;;;;;;5042004;28;20026;-78
2023/10/09 15:09:29;;;;;;;9.65;3.53;;;15.20;99.90;;;;;;5042019;28;20192;-78
2023/10/09 15:11:55;;;;;;;9.27;3.58;;;15.20;99.90;;;;;;5039799;28;20036;-78
2023/10/09 15:14:21;;;;;;;13.02;4.40;;;15.10;99.90;;;;;;5035680;28;20136;-78
2023/10/09 15:16:47;;;;;;;7.25;3.35;;;15.10;99.90;;;;;;5032419;28;20040;-78
2023/10/09 15:19:16;;;;;;;8.05;3.92;;;15.00;99.90;;;;;;5039038;28;20034;-78
2023/10/09 15:21:45;;;;;;;7.20;3.45;;;15.10;99.90;;;;;;5039897;28;20021;-78
2023/10/09 15:24:15;;;;;;;11.85;4.30;;;15.00;99.90;;;;;;5036782;28;20021;-78